createdAt,value
2022-12-11T00:02:18.987Z,101275.84
2022-12-11T00:04:50.918Z,101277.47
2022-12-11T00:07:22.923Z,101279.50
2022-12-11T00:09:54.874Z,101277.97
2022-12-11T00:12:26.807Z,101270.19
2022-12-11T00:14:58.885Z,101277.16
2022-12-11T00:17:30.879Z,101269.50
2022-12-11T00:20:02.991Z,101266.94
2022-12-11T00:22:35.264Z,101264.59
2022-12-11T00:25:08.171Z,101274.84
2022-12-11T00:27:40.307Z,101270.50
2022-12-11T00:30:12.819Z,101266.94
2022-12-11T00:32:44.820Z,101269.63
2022-12-11T00:35:16.780Z,101265.97
2022-12-11T00:37:48.793Z,101260.66
2022-12-11T00:40:20.722Z,101264.41
2022-12-11T00:42:52.695Z,101263.41
2022-12-11T00:45:24.711Z,101264.34
2022-12-11T00:47:56.719Z,101254.81
2022-12-11T00:50:28.795Z,101259.97
2022-12-11T00:53:01.167Z,101260.03
2022-12-11T00:55:39.159Z,101264.53
2022-12-11T00:58:12.327Z,101256.00
2022-12-11T01:00:44.912Z,101258.91
2022-12-11T01:03:17.559Z,101266.56
2022-12-11T01:05:54.632Z,101267.06
2022-12-11T01:08:26.712Z,101267.75
2022-12-11T01:11:09.206Z,101271.00
2022-12-11T01:13:41.703Z,101278.78
2022-12-11T01:16:16.100Z,101273.84
2022-12-11T01:18:48.133Z,101269.81
2022-12-11T01:21:20.134Z,101269.81
2022-12-11T01:23:52.341Z,101272.13
2022-12-11T01:26:24.282Z,101274.00
2022-12-11T01:28:56.314Z,101278.22
2022-12-11T01:31:28.301Z,101272.06
2022-12-11T01:34:00.238Z,101282.19
2022-12-11T01:36:32.171Z,101277.72
2022-12-11T01:39:04.192Z,101276.03
2022-12-11T01:41:36.155Z,101271.06
2022-12-11T01:44:31.011Z,101273.94
2022-12-11T01:47:02.941Z,101283.56
2022-12-11T01:49:35.184Z,101285.25
2022-12-11T01:52:16.863Z,101286.94
2022-12-11T01:54:51.390Z,101279.34
2022-12-11T01:57:23.336Z,101282.56
2022-12-11T01:59:55.922Z,101276.47
2022-12-11T02:02:31.361Z,101272.88
2022-12-11T02:05:05.917Z,101270.38
2022-12-11T02:07:51.833Z,101270.44
2022-12-11T02:11:01.780Z,101262.19
2022-12-11T02:14:02.793Z,101266.94
2022-12-11T02:16:56.453Z,101265.22
2022-12-11T02:19:45.744Z,101268.63
2022-12-11T02:22:55.453Z,101272.06
2022-12-11T02:25:58.251Z,101268.38
2022-12-11T02:28:56.496Z,101271.88
2022-12-11T02:31:42.132Z,101267.69
2022-12-11T02:34:38.735Z,101264.41
2022-12-11T02:37:18.963Z,101269.63
2022-12-11T02:39:52.876Z,101266.63
2022-12-11T02:42:30.517Z,101263.78
2022-12-11T02:45:05.201Z,101258.91
2022-12-11T02:47:38.155Z,101257.97
2022-12-11T02:50:15.824Z,101257.03
2022-12-11T02:52:51.112Z,101258.16
2022-12-11T02:55:25.863Z,101257.78
2022-12-11T02:58:08.162Z,101251.50
2022-12-11T03:00:40.465Z,101242.59
2022-12-11T03:03:13.261Z,101253.00
2022-12-11T03:05:46.339Z,101250.88
2022-12-11T03:08:18.739Z,101247.03
2022-12-11T03:10:50.779Z,101240.50
2022-12-11T03:13:23.416Z,101234.72
2022-12-11T03:16:12.397Z,101244.97
2022-12-11T03:19:07.897Z,101243.34
2022-12-11T03:22:00.678Z,101246.47
2022-12-11T03:24:44.407Z,101242.41
2022-12-11T03:27:26.939Z,101245.53
2022-12-11T03:30:08.280Z,101239.25
2022-12-11T03:32:53.738Z,101244.47
2022-12-11T03:35:36.085Z,101238.75
2022-12-11T03:38:21.506Z,101231.28
2022-12-11T03:40:58.621Z,101239.31
2022-12-11T03:43:32.160Z,101233.38
2022-12-11T03:46:04.836Z,101231.59
2022-12-11T03:48:40.670Z,101229.22
2022-12-11T03:51:13.411Z,101230.16
2022-12-11T03:53:47.333Z,101230.09
2022-12-11T03:56:21.520Z,101229.53
2022-12-11T03:58:53.511Z,101233.50
2022-12-11T04:01:25.494Z,101235.13
2022-12-11T04:03:57.498Z,101232.66
2022-12-11T04:06:29.560Z,101236.19
2022-12-11T04:09:01.488Z,101230.34
2022-12-11T04:11:36.475Z,101240.50
2022-12-11T04:14:32.662Z,101241.41
2022-12-11T04:17:05.585Z,101236.13
2022-12-11T04:19:56.482Z,101236.31
2022-12-11T04:22:46.810Z,101243.22
2022-12-11T04:25:18.805Z,101244.72
2022-12-11T04:27:50.895Z,101235.94
2022-12-11T04:30:30.734Z,101248.16
2022-12-11T04:33:04.445Z,101241.50
2022-12-11T04:35:36.688Z,101247.72
2022-12-11T04:38:08.701Z,101247.66
2022-12-11T04:40:40.643Z,101245.97
2022-12-11T04:43:12.576Z,101246.78
2022-12-11T04:45:44.477Z,101245.91
2022-12-11T04:48:16.406Z,101247.59
2022-12-11T04:50:48.302Z,101252.00
2022-12-11T04:53:20.221Z,101242.06
2022-12-11T04:55:52.386Z,101243.25
2022-12-11T04:58:25.643Z,101243.00
2022-12-11T05:00:57.565Z,101249.84
2022-12-11T05:03:29.506Z,101243.53
2022-12-11T05:06:01.658Z,101246.47
2022-12-11T05:08:36.568Z,101242.16
2022-12-11T05:11:15.914Z,101246.34
2022-12-11T05:13:48.041Z,101248.09
2022-12-11T05:16:20.036Z,101250.50
2022-12-11T05:18:51.992Z,101245.41
2022-12-11T05:21:23.933Z,101248.56
2022-12-11T05:23:56.082Z,101244.09
2022-12-11T05:26:28.041Z,101249.38
2022-12-11T05:29:00.025Z,101236.06
2022-12-11T05:31:32.022Z,101239.94
2022-12-11T05:34:04.047Z,101244.47
2022-12-11T05:36:36.096Z,101253.13
2022-12-11T05:39:08.152Z,101246.09
2022-12-11T05:41:40.291Z,101250.31
2022-12-11T05:44:13.432Z,101255.75
2022-12-11T05:46:45.552Z,101248.47
2022-12-11T05:49:19.872Z,101248.66
2022-12-11T05:51:52.505Z,101244.97
2022-12-11T05:54:24.495Z,101246.53
2022-12-11T05:56:56.435Z,101243.84
2022-12-11T05:59:28.381Z,101243.16
2022-12-11T06:02:00.421Z,101246.84
2022-12-11T06:04:35.214Z,101240.44
2022-12-11T06:07:07.137Z,101235.63
2022-12-11T06:09:39.241Z,101232.03
2022-12-11T06:12:11.224Z,101226.19
2022-12-11T06:14:43.329Z,101227.84
2022-12-11T06:17:15.247Z,101222.81
2022-12-11T06:19:47.190Z,101227.88
2022-12-11T06:22:19.134Z,101230.53
2022-12-11T06:24:51.077Z,101225.69
2022-12-11T06:27:23.058Z,101214.09
2022-12-11T06:29:55.122Z,101214.31
2022-12-11T06:32:27.428Z,101220.59
2022-12-11T06:34:59.487Z,101223.75
2022-12-11T06:37:31.372Z,101224.50
2022-12-11T06:40:05.461Z,101228.78
2022-12-11T06:42:37.384Z,101226.94
2022-12-11T06:45:10.603Z,101229.59
2022-12-11T06:47:42.825Z,101235.56
2022-12-11T06:50:14.789Z,101240.69
2022-12-11T06:52:46.729Z,101232.03
2022-12-11T06:55:18.666Z,101231.16
2022-12-11T06:57:50.625Z,101229.66
2022-12-11T07:00:22.717Z,101230.47
2022-12-11T07:02:54.647Z,101227.84
2022-12-11T07:05:26.624Z,101232.09
2022-12-11T07:07:58.914Z,101241.28
2022-12-11T07:10:31.123Z,101235.31
2022-12-11T07:13:03.110Z,101240.25
2022-12-11T07:15:40.152Z,101237.88
2022-12-11T07:18:12.393Z,101236.31
2022-12-11T07:20:44.859Z,101235.19
2022-12-11T07:23:16.799Z,101238.88
2022-12-11T07:25:48.727Z,101233.03
2022-12-11T07:28:20.662Z,101239.06
2022-12-11T07:30:52.603Z,101240.63
2022-12-11T07:33:24.541Z,101237.81
2022-12-11T07:35:56.642Z,101235.00
2022-12-11T07:38:28.607Z,101236.19
2022-12-11T07:41:12.203Z,101234.69
2022-12-11T07:43:45.442Z,101236.63
2022-12-11T07:46:22.194Z,101241.22
2022-12-11T07:48:54.579Z,101242.84
2022-12-11T07:51:31.078Z,101247.72
2022-12-11T07:54:16.728Z,101249.06
2022-12-11T07:56:53.538Z,101248.34
2022-12-11T07:59:25.932Z,101237.50
2022-12-11T08:01:57.932Z,101236.56
2022-12-11T08:04:30.140Z,101234.09
2022-12-11T08:07:02.472Z,101229.66
2022-12-11T08:09:34.387Z,101230.41
2022-12-11T08:12:06.617Z,101234.66
2022-12-11T08:14:38.540Z,101242.16
2022-12-11T08:17:10.660Z,101245.78
2022-12-11T08:19:42.597Z,101250.13
2022-12-11T08:22:14.961Z,101250.34
2022-12-11T08:24:47.822Z,101248.03
2022-12-11T08:27:19.880Z,101254.34
2022-12-11T08:29:51.820Z,101249.28
2022-12-11T08:32:23.809Z,101252.94
2022-12-11T08:34:55.745Z,101254.69
2022-12-11T08:37:28.038Z,101261.34
2022-12-11T08:40:00.760Z,101264.63
2022-12-11T08:42:32.725Z,101269.56
2022-12-11T08:45:06.038Z,101263.53
2022-12-11T08:47:38.635Z,101264.56
2022-12-11T08:50:10.797Z,101266.31
2022-12-11T08:52:42.897Z,101270.81
2022-12-11T08:55:14.964Z,101268.06
2022-12-11T08:57:46.933Z,101261.91
2022-12-11T09:00:19.010Z,101267.88
2022-12-11T09:02:51.068Z,101263.72
2022-12-11T09:05:23.012Z,101271.25
2022-12-11T09:07:54.954Z,101260.22
2022-12-11T09:10:27.353Z,101262.16
2022-12-11T09:12:59.357Z,101258.03
2022-12-11T09:15:31.318Z,101261.47
2022-12-11T09:18:03.439Z,101255.00
2022-12-11T09:20:35.462Z,101253.41
2022-12-11T09:23:09.406Z,101246.47
2022-12-11T09:25:41.317Z,101246.56
2022-12-11T09:28:13.352Z,101253.75
2022-12-11T09:30:45.364Z,101252.34
2022-12-11T09:33:17.726Z,101259.91
2022-12-11T09:36:00.334Z,101255.94
2022-12-11T09:38:33.570Z,101251.91
2022-12-11T09:41:36.516Z,101252.34
2022-12-11T09:44:11.479Z,101243.53
2022-12-11T09:46:44.602Z,101248.59
2022-12-11T09:49:43.051Z,101246.22
2022-12-11T09:52:25.639Z,101241.88
2022-12-11T09:55:13.727Z,101240.00
2022-12-11T09:58:35.240Z,101240.06
2022-12-11T10:01:17.739Z,101242.13
2022-12-11T10:04:30.196Z,101237.09
2022-12-11T10:07:19.933Z,101235.22
2022-12-11T10:09:57.892Z,101243.94
2022-12-11T10:12:51.553Z,101249.66
2022-12-11T10:16:04.933Z,101237.84
2022-12-11T10:18:38.068Z,101239.03
2022-12-11T10:21:11.257Z,101237.50
2022-12-11T10:23:55.360Z,101236.84
2022-12-11T10:26:29.692Z,101235.41
2022-12-11T10:29:02.700Z,101237.16
2022-12-11T10:31:57.055Z,101238.09
2022-12-11T10:34:43.002Z,101237.84
2022-12-11T10:37:15.397Z,101239.31
2022-12-11T10:39:47.338Z,101235.34
2022-12-11T10:42:22.475Z,101227.13
2022-12-11T10:45:03.881Z,101234.81
2022-12-11T10:47:36.646Z,101227.19
2022-12-11T10:50:24.051Z,101232.75
2022-12-11T10:52:56.499Z,101232.75
2022-12-11T10:55:44.976Z,101217.13
2022-12-11T10:58:21.862Z,101220.81
2022-12-11T11:01:23.848Z,101213.91
2022-12-11T11:04:07.564Z,101211.56
2022-12-11T11:06:39.514Z,101209.16
2022-12-11T11:09:35.811Z,101197.91
2022-12-11T11:12:45.104Z,101209.63
2022-12-11T11:15:24.140Z,101192.09
2022-12-11T11:18:02.123Z,101198.19
2022-12-11T11:20:36.049Z,101190.50
2022-12-11T11:23:18.015Z,101189.84
2022-12-11T11:26:00.015Z,101190.50
2022-12-11T11:28:39.015Z,101182.50
2022-12-11T11:31:15.422Z,101179.50
2022-12-11T11:34:05.091Z,101182.06
2022-12-11T11:36:38.634Z,101174.13
2022-12-11T11:39:31.369Z,101176.47
2022-12-11T11:42:17.278Z,101171.53
2022-12-11T11:45:34.642Z,101177.09
2022-12-11T11:49:01.127Z,101166.16
2022-12-11T11:52:02.298Z,101172.91
2022-12-11T11:54:49.616Z,101173.78
2022-12-11T11:57:43.360Z,101174.22
2022-12-11T12:00:30.320Z,101180.63
2022-12-11T12:03:18.879Z,101183.25
2022-12-11T12:06:36.121Z,101179.72
2022-12-11T12:09:29.425Z,101184.75
2022-12-11T12:12:34.879Z,101185.88
2022-12-11T12:15:59.097Z,101182.88
2022-12-11T12:19:06.122Z,101182.28
2022-12-11T12:21:42.314Z,101174.13
2022-12-11T12:24:51.602Z,101184.09
2022-12-11T12:30:31.224Z,101183.88
2022-12-11T12:33:31.810Z,101181.34
2022-12-11T12:36:27.296Z,101181.63
2022-12-11T12:39:34.836Z,101181.75
2022-12-11T12:42:26.074Z,101178.28
2022-12-11T12:45:15.086Z,101179.44
2022-12-11T12:47:53.195Z,101178.63
2022-12-11T12:50:31.939Z,101184.97
2022-12-11T12:53:06.630Z,101183.59
2022-12-11T12:55:39.447Z,101185.44
2022-12-11T12:58:30.410Z,101188.97
2022-12-11T13:01:19.444Z,101179.63
2022-12-11T13:04:01.819Z,101181.38
2022-12-11T13:06:40.852Z,101182.97
2022-12-11T13:09:25.104Z,101179.34
2022-12-11T13:12:00.392Z,101181.56
2022-12-11T13:14:33.769Z,101173.31
2022-12-11T13:17:20.797Z,101175.97
2022-12-11T13:20:14.325Z,101175.47
2022-12-11T13:23:05.946Z,101178.16
2022-12-11T13:25:51.485Z,101172.47
2022-12-11T13:28:31.542Z,101170.66
2022-12-11T13:31:16.822Z,101172.00
2022-12-11T13:33:52.739Z,101172.81
2022-12-11T13:36:31.417Z,101178.31
2022-12-11T13:39:17.463Z,101181.00
2022-12-11T13:41:55.234Z,101176.75
2022-12-11T13:44:32.967Z,101182.16
2022-12-11T13:47:12.232Z,101178.84
2022-12-11T13:49:49.314Z,101183.78
2022-12-11T13:52:26.034Z,101188.59
2022-12-11T13:54:59.422Z,101189.19
2022-12-11T13:57:31.401Z,101189.34
2022-12-11T14:00:09.065Z,101180.13
2022-12-11T14:02:42.849Z,101184.53
2022-12-11T14:05:15.669Z,101178.50
2022-12-11T14:07:55.279Z,101183.06
2022-12-11T14:10:31.720Z,101191.00
2022-12-11T14:13:08.211Z,101183.97
2022-12-11T14:15:45.570Z,101177.19
2022-12-11T14:18:24.469Z,101182.41
2022-12-11T14:21:06.125Z,101181.13
2022-12-11T14:23:38.362Z,101181.25
2022-12-11T14:26:22.896Z,101183.19
2022-12-11T14:28:55.657Z,101183.13
2022-12-11T14:31:44.554Z,101184.88
2022-12-11T14:34:23.378Z,101185.00
2022-12-11T14:36:56.553Z,101188.41
2022-12-11T14:39:58.083Z,101182.69
2022-12-11T14:42:41.694Z,101186.13
2022-12-11T14:45:42.124Z,101187.06
2022-12-11T14:48:47.462Z,101187.06
2022-12-11T14:51:20.086Z,101185.41
2022-12-11T14:53:53.887Z,101185.31
2022-12-11T14:56:30.030Z,101186.19
2022-12-11T14:59:07.004Z,101190.47
2022-12-11T15:01:39.383Z,101194.78
2022-12-11T15:04:14.379Z,101190.50
2022-12-11T15:06:49.138Z,101198.47
2022-12-11T15:09:28.903Z,101195.84
2022-12-11T15:12:14.710Z,101187.94
2022-12-11T15:15:01.016Z,101187.94
2022-12-11T15:17:37.222Z,101189.75
2022-12-11T15:20:21.690Z,101193.31
2022-12-11T15:22:54.924Z,101192.88
2022-12-11T15:25:29.415Z,101187.38
2022-12-11T15:28:01.997Z,101191.59
2022-12-11T15:30:35.996Z,101196.84
2022-12-11T15:33:11.130Z,101190.13
2022-12-11T15:36:04.923Z,101197.75
2022-12-11T15:38:42.083Z,101199.38
2022-12-11T15:41:18.518Z,101195.94
2022-12-11T15:43:58.369Z,101200.97
2022-12-11T15:46:36.420Z,101203.59
2022-12-11T15:49:15.277Z,101204.38
2022-12-11T15:51:47.319Z,101208.09
2022-12-11T15:54:19.366Z,101209.69
2022-12-11T15:56:51.417Z,101207.59
2022-12-11T15:59:23.355Z,101210.34
2022-12-11T16:01:55.473Z,101212.69
2022-12-11T16:04:27.591Z,101215.38
2022-12-11T16:06:59.732Z,101224.22
2022-12-11T16:09:34.633Z,101220.88
2022-12-11T16:12:06.945Z,101220.13
2022-12-11T16:14:39.285Z,101224.22
2022-12-11T16:17:13.884Z,101215.38
2022-12-11T16:19:46.116Z,101212.50
2022-12-11T16:22:18.097Z,101216.75
2022-12-11T16:24:54.888Z,101208.03
2022-12-11T16:27:26.998Z,101211.69
2022-12-11T16:29:59.031Z,101211.75
2022-12-11T16:32:31.084Z,101211.91
2022-12-11T16:35:03.329Z,101214.72
2022-12-11T16:37:35.551Z,101214.69
2022-12-11T16:40:08.583Z,101219.75
2022-12-11T16:42:40.973Z,101215.44
2022-12-11T16:45:19.272Z,101216.44
2022-12-11T16:47:52.652Z,101208.41
2022-12-11T16:50:25.516Z,101207.72
2022-12-11T16:52:57.616Z,101208.66
2022-12-11T16:55:29.569Z,101215.66
2022-12-11T16:58:01.594Z,101213.16
2022-12-11T17:00:33.599Z,101212.44
2022-12-11T17:03:05.680Z,101208.06
2022-12-11T17:05:41.471Z,101208.88
2022-12-11T17:08:13.663Z,101211.69
2022-12-11T17:10:45.703Z,101208.28
2022-12-11T17:13:18.122Z,101205.72
2022-12-11T17:15:50.238Z,101207.00
2022-12-11T17:18:22.386Z,101206.84
2022-12-11T17:20:54.389Z,101212.81
2022-12-11T17:23:26.799Z,101201.75
2022-12-11T17:25:58.869Z,101207.25
2022-12-11T17:28:32.238Z,101206.91
2022-12-11T17:31:11.362Z,101211.69
2022-12-11T17:33:44.811Z,101218.47
2022-12-11T17:36:20.359Z,101209.13
2022-12-11T17:38:52.522Z,101210.00
2022-12-11T17:41:24.888Z,101215.16
2022-12-11T17:43:56.966Z,101214.97
2022-12-11T17:46:29.109Z,101215.59
2022-12-11T17:49:04.378Z,101220.00
2022-12-11T17:51:36.417Z,101208.88
2022-12-11T17:54:08.481Z,101205.38
2022-12-11T17:56:40.881Z,101205.88
2022-12-11T17:59:12.988Z,101209.16
2022-12-11T18:01:45.127Z,101215.75
2022-12-11T18:04:17.232Z,101219.00
2022-12-11T18:06:49.238Z,101211.97
2022-12-11T18:09:21.253Z,101217.88
2022-12-11T18:11:53.378Z,101212.53
2022-12-11T18:14:25.649Z,101210.56
2022-12-11T18:16:57.650Z,101210.25
2022-12-11T18:19:30.046Z,101209.22
2022-12-11T18:22:02.139Z,101216.13
2022-12-11T18:24:34.175Z,101207.16
2022-12-11T18:27:10.340Z,101215.69
2022-12-11T18:29:42.299Z,101215.34
2022-12-11T18:32:14.274Z,101205.63
2022-12-11T18:34:46.289Z,101210.78
2022-12-11T18:37:21.135Z,101203.75
2022-12-11T18:39:55.508Z,101201.31
2022-12-11T18:42:33.326Z,101205.56
2022-12-11T18:45:07.107Z,101201.97
2022-12-11T18:47:39.139Z,101204.50
2022-12-11T18:50:11.114Z,101203.69
2022-12-11T18:52:43.040Z,101205.38
2022-12-11T18:55:15.079Z,101204.69
2022-12-11T18:57:47.057Z,101200.63
2022-12-11T19:00:19.991Z,101210.03
2022-12-11T19:02:52.725Z,101208.31
2022-12-11T19:05:24.670Z,101203.25
2022-12-11T19:07:56.843Z,101202.31
2022-12-11T19:10:29.098Z,101200.56
2022-12-11T19:13:01.076Z,101191.09
2022-12-11T19:15:33.140Z,101201.44
2022-12-11T19:18:05.223Z,101209.13
2022-12-11T19:20:55.675Z,101206.56
2022-12-11T19:23:36.605Z,101206.44
2022-12-11T19:26:14.200Z,101207.25
2022-12-11T19:28:47.619Z,101212.41
2022-12-11T19:31:23.067Z,101214.97
2022-12-11T19:33:56.208Z,101218.34
2022-12-11T19:36:30.646Z,101219.97
2022-12-11T19:39:07.086Z,101221.59
2022-12-11T19:41:42.444Z,101218.97
2022-12-11T19:44:14.404Z,101224.09
2022-12-11T19:46:46.544Z,101222.34
2022-12-11T19:49:18.594Z,101227.47
2022-12-11T19:51:51.569Z,101228.44
2022-12-11T19:54:24.668Z,101228.50
2022-12-11T19:56:56.694Z,101239.03
2022-12-11T19:59:28.663Z,101228.88
2022-12-11T20:02:00.924Z,101224.75
2022-12-11T20:04:33.066Z,101229.28
2022-12-11T20:07:05.068Z,101218.25
2022-12-11T20:09:37.139Z,101227.47
2022-12-11T20:12:10.479Z,101223.06
2022-12-11T20:14:42.576Z,101226.38
2022-12-11T20:17:15.473Z,101228.88
2022-12-11T20:19:47.582Z,101222.06
2022-12-11T20:22:19.536Z,101217.59
2022-12-11T20:24:51.660Z,101217.66
2022-12-11T20:27:23.768Z,101217.72
2022-12-11T20:29:55.722Z,101216.97
2022-12-11T20:32:27.903Z,101224.75
2022-12-11T20:34:59.887Z,101232.22
2022-12-11T20:37:32.389Z,101232.22
2022-12-11T20:40:05.628Z,101238.22
2022-12-11T20:42:37.738Z,101239.03
2022-12-11T20:45:11.061Z,101230.19
2022-12-11T20:47:43.351Z,101241.06
2022-12-11T20:50:15.375Z,101243.66
2022-12-11T20:52:47.310Z,101242.91
2022-12-11T20:55:19.253Z,101243.66
2022-12-11T20:57:51.261Z,101241.75
2022-12-11T21:00:23.634Z,101241.69
2022-12-11T21:02:57.327Z,101243.19
2022-12-11T21:05:29.319Z,101246.56
2022-12-11T21:08:01.345Z,101250.88
2022-12-11T21:10:33.362Z,101244.13
2022-12-11T21:13:05.461Z,101252.63
2022-12-11T21:15:39.587Z,101243.09
2022-12-11T21:18:11.733Z,101248.06
2022-12-11T21:20:43.682Z,101250.50
2022-12-11T21:23:15.727Z,101250.22
2022-12-11T21:25:47.725Z,101255.75
2022-12-11T21:28:20.747Z,101259.16
2022-12-11T21:30:52.879Z,101258.06
2022-12-11T21:33:24.903Z,101253.66
2022-12-11T21:35:58.443Z,101253.78
2022-12-11T21:38:30.577Z,101246.03
2022-12-11T21:41:21.355Z,101254.59
2022-12-11T21:45:07.224Z,101252.09
2022-12-11T21:46:48.156Z,101248.00
2022-12-11T21:49:20.845Z,101246.38
2022-12-11T21:51:52.827Z,101254.22
2022-12-11T21:54:25.223Z,101251.56
2022-12-11T21:56:57.492Z,101250.91
2022-12-11T21:59:29.891Z,101258.88
2022-12-11T22:02:01.860Z,101253.88
2022-12-11T22:04:33.871Z,101254.63
2022-12-11T22:07:06.172Z,101256.25
2022-12-11T22:09:38.138Z,101260.72
2022-12-11T22:12:29.210Z,101259.16
2022-12-11T22:15:01.277Z,101258.34
2022-12-11T22:17:33.215Z,101254.25
2022-12-11T22:20:06.616Z,101255.78
2022-12-11T22:22:38.672Z,101264.31
2022-12-11T22:25:11.141Z,101253.22
2022-12-11T22:27:43.485Z,101255.00
2022-12-11T22:30:15.482Z,101255.06
2022-12-11T22:32:47.481Z,101260.84
2022-12-11T22:35:24.129Z,101261.47
2022-12-11T22:37:58.995Z,101257.81
2022-12-11T22:40:32.231Z,101253.47
2022-12-11T22:43:04.233Z,101257.81
2022-12-11T22:45:41.165Z,101253.47
2022-12-11T22:48:13.276Z,101249.88
2022-12-11T22:50:45.276Z,101254.22
2022-12-11T22:53:17.207Z,101247.38
2022-12-11T22:55:49.281Z,101249.81
2022-12-11T22:58:21.998Z,101251.44
2022-12-11T23:00:54.257Z,101258.19
2022-12-11T23:03:26.357Z,101261.66
2022-12-11T23:06:03.349Z,101252.84
2022-12-11T23:08:37.929Z,101261.44
2022-12-11T23:11:24.033Z,101262.38
2022-12-11T23:13:56.950Z,101252.09
2022-12-11T23:16:29.105Z,101255.50
2022-12-11T23:19:01.532Z,101261.28
2022-12-11T23:21:34.330Z,101262.84
2022-12-11T23:24:06.977Z,101253.75
2022-12-11T23:26:39.215Z,101255.25
2022-12-11T23:29:11.227Z,101256.78
2022-12-11T23:31:43.288Z,101254.22
2022-12-11T23:34:15.315Z,101257.66
2022-12-11T23:36:47.527Z,101265.22
2022-12-11T23:39:19.499Z,101260.09
2022-12-11T23:41:51.449Z,101257.53
2022-12-11T23:44:23.828Z,101255.75
2022-12-11T23:46:55.793Z,101253.19
2022-12-11T23:49:27.942Z,101249.59
2022-12-11T23:51:59.921Z,101252.59
2022-12-11T23:54:32.043Z,101251.50
2022-12-11T23:57:04.312Z,101258.31
2022-12-11T23:59:37.011Z,101260.94
